createdAt,value
2018-11-02T00:01:06.545Z,10.80
2018-11-02T00:03:34.139Z,10.80
2018-11-02T00:06:02.524Z,10.90
2018-11-02T00:08:30.024Z,10.90
2018-11-02T00:10:57.608Z,10.80
2018-11-02T00:13:25.163Z,10.70
2018-11-02T00:15:53.729Z,10.70
2018-11-02T00:18:21.599Z,10.60
2018-11-02T00:20:49.162Z,10.70
2018-11-02T00:23:16.745Z,10.70
2018-11-02T00:25:44.292Z,10.60
2018-11-02T00:28:11.849Z,10.60
2018-11-02T00:30:39.440Z,10.50
2018-11-02T00:33:07.003Z,10.50
2018-11-02T00:35:34.544Z,10.40
2018-11-02T00:38:02.609Z,10.40
2018-11-02T00:40:30.167Z,10.40
2018-11-02T00:42:57.731Z,10.50
2018-11-02T00:45:25.311Z,10.50
2018-11-02T00:47:52.869Z,10.60
2018-11-02T00:50:20.449Z,10.70
2018-11-02T00:52:48.784Z,10.90
2018-11-02T00:55:17.543Z,10.90
2018-11-02T00:57:45.108Z,10.90
2018-11-02T01:00:12.660Z,10.80
2018-11-02T01:02:40.252Z,10.80
2018-11-02T01:05:07.782Z,10.80
2018-11-02T01:07:35.725Z,10.70
2018-11-02T01:10:03.245Z,10.60
2018-11-02T01:12:30.811Z,10.50
2018-11-02T01:14:58.395Z,10.40
2018-11-02T01:17:25.960Z,10.40
2018-11-02T01:19:53.646Z,10.30
2018-11-02T01:22:21.135Z,10.30
2018-11-02T01:24:48.698Z,10.40
2018-11-02T01:27:16.284Z,10.40
2018-11-02T01:29:43.847Z,10.40
2018-11-02T01:32:11.406Z,10.40
2018-11-02T01:34:39.014Z,10.40
2018-11-02T01:37:07.649Z,10.30
2018-11-02T01:39:35.206Z,10.30
2018-11-02T01:42:02.793Z,10.30
2018-11-02T01:44:30.349Z,10.30
2018-11-02T01:46:57.914Z,10.30
2018-11-02T01:49:26.280Z,10.30
2018-11-02T01:51:53.831Z,10.30
2018-11-02T01:54:21.388Z,10.40
2018-11-02T01:56:48.978Z,10.50
2018-11-02T01:59:16.543Z,10.50
2018-11-02T02:01:44.107Z,10.40
2018-11-02T02:04:11.683Z,10.40
2018-11-02T02:06:40.020Z,10.40
2018-11-02T02:09:07.570Z,10.40
2018-11-02T02:11:35.187Z,10.40
2018-11-02T02:14:03.503Z,10.40
2018-11-02T02:16:31.061Z,10.40
2018-11-02T02:18:58.646Z,10.40
2018-11-02T02:21:26.208Z,10.40
2018-11-02T02:23:54.084Z,10.40
2018-11-02T02:26:22.046Z,10.40
2018-11-02T02:28:49.606Z,10.40
2018-11-02T02:31:17.175Z,10.40
2018-11-02T02:33:44.789Z,10.40
2018-11-02T02:36:12.340Z,10.40
2018-11-02T02:38:39.896Z,10.40
2018-11-02T02:41:07.589Z,10.40
2018-11-02T02:43:35.157Z,10.40
2018-11-02T02:46:02.701Z,10.40
2018-11-02T02:48:30.352Z,10.40
2018-11-02T02:50:57.912Z,10.40
2018-11-02T02:53:26.290Z,10.50
2018-11-02T02:55:53.851Z,10.50
2018-11-02T02:58:22.177Z,10.50
2018-11-02T03:00:49.776Z,10.50
2018-11-02T03:03:17.339Z,10.50
2018-11-02T03:05:44.895Z,10.50
2018-11-02T03:08:12.487Z,10.50
2018-11-02T03:10:40.850Z,10.50
2018-11-02T03:13:08.412Z,10.50
2018-11-02T03:15:35.974Z,10.50
2018-11-02T03:18:04.290Z,10.60
2018-11-02T03:20:31.890Z,10.60
2018-11-02T03:22:59.445Z,10.60
2018-11-02T03:25:27.025Z,10.60
2018-11-02T03:27:54.595Z,10.60
2018-11-02T03:30:22.925Z,10.60
2018-11-02T03:32:51.122Z,10.60
2018-11-02T03:35:18.687Z,10.60
2018-11-02T03:37:46.249Z,10.60
2018-11-02T03:40:13.833Z,10.80
2018-11-02T03:42:42.158Z,10.90
2018-11-02T03:45:09.753Z,10.90
2018-11-02T03:47:37.310Z,10.90
2018-11-02T03:50:05.444Z,10.90
2018-11-02T03:52:33.033Z,10.90
2018-11-02T03:55:00.600Z,10.80
2018-11-02T03:57:28.209Z,10.80
2018-11-02T03:59:56.550Z,10.80
2018-11-02T04:02:24.101Z,10.80
2018-11-02T04:04:51.960Z,10.80
2018-11-02T04:07:19.517Z,10.70
2018-11-02T04:09:47.132Z,10.70
2018-11-02T04:12:14.673Z,10.70
2018-11-02T04:14:42.512Z,10.70
2018-11-02T04:17:10.115Z,10.70
2018-11-02T04:19:38.449Z,10.80
2018-11-02T04:22:06.002Z,10.70
2018-11-02T04:24:33.584Z,10.70
2018-11-02T04:27:01.147Z,10.70
2018-11-02T04:29:28.748Z,10.60
2018-11-02T04:31:57.067Z,10.60
2018-11-02T04:34:24.624Z,10.60
2018-11-02T04:36:52.711Z,10.50
2018-11-02T04:39:20.280Z,10.50
2018-11-02T04:41:47.874Z,10.50
2018-11-02T04:44:15.452Z,10.50
2018-11-02T04:46:43.804Z,10.70
2018-11-02T04:49:11.363Z,10.70
2018-11-02T04:51:38.915Z,10.70
2018-11-02T04:54:06.497Z,10.70
2018-11-02T04:56:34.065Z,10.60
2018-11-02T04:59:02.403Z,10.50
2018-11-02T05:01:30.029Z,10.50
2018-11-02T05:03:57.582Z,10.40
2018-11-02T05:06:25.193Z,10.40
2018-11-02T05:08:52.736Z,10.40
2018-11-02T05:11:20.350Z,10.40
2018-11-02T05:13:47.890Z,10.40
2018-11-02T05:16:15.734Z,10.40
2018-11-02T05:18:43.301Z,10.40
2018-11-02T05:21:10.961Z,10.30
2018-11-02T05:23:38.446Z,10.40
2018-11-02T05:26:06.394Z,10.40
2018-11-02T05:28:33.958Z,10.40
2018-11-02T05:31:01.530Z,10.40
2018-11-02T05:33:29.107Z,10.40
2018-11-02T05:35:56.658Z,10.40
2018-11-02T05:38:24.218Z,10.40
2018-11-02T05:40:51.801Z,10.40
2018-11-02T05:43:20.130Z,10.40
2018-11-02T05:45:47.750Z,10.40
2018-11-02T05:48:16.073Z,10.40
2018-11-02T05:50:43.634Z,10.40
2018-11-02T05:53:11.234Z,10.40
2018-11-02T05:55:38.795Z,10.50
2018-11-02T05:58:06.380Z,10.50
2018-11-02T06:00:34.712Z,10.60
2018-11-02T06:03:02.277Z,10.60
2018-11-02T06:05:29.860Z,10.60
2018-11-02T06:07:57.509Z,10.60
2018-11-02T06:10:26.277Z,10.60
2018-11-02T06:12:53.840Z,10.60
2018-11-02T06:15:21.402Z,10.60
2018-11-02T06:17:49.063Z,10.50
2018-11-02T06:20:16.551Z,10.60
2018-11-02T06:22:44.142Z,10.50
2018-11-02T06:25:12.467Z,10.70
2018-11-02T06:27:40.050Z,10.70
2018-11-02T06:30:07.618Z,10.60
2018-11-02T06:32:35.277Z,10.60
2018-11-02T06:35:02.832Z,10.70
2018-11-02T06:37:30.398Z,10.60
2018-11-02T06:39:57.988Z,10.50
2018-11-02T06:42:26.309Z,10.70
2018-11-02T06:44:55.003Z,10.70
2018-11-02T06:47:22.464Z,10.60
2018-11-02T06:49:50.029Z,10.50
2018-11-02T06:52:17.616Z,10.50
2018-11-02T06:54:45.175Z,10.40
2018-11-02T06:57:12.787Z,10.40
2018-11-02T06:59:40.548Z,10.30
2018-11-02T07:02:07.933Z,10.30
2018-11-02T07:04:35.529Z,10.30
2018-11-02T07:07:03.921Z,10.40
2018-11-02T07:09:31.433Z,10.30
2018-11-02T07:11:59.162Z,10.30
2018-11-02T07:14:27.065Z,10.40
2018-11-02T07:16:55.450Z,10.40
2018-11-02T07:19:23.018Z,10.40
2018-11-02T07:21:50.580Z,10.40
2018-11-02T07:24:18.178Z,10.40
2018-11-02T07:26:46.512Z,10.50
2018-11-02T07:29:14.380Z,10.50
2018-11-02T07:31:41.965Z,10.50
2018-11-02T07:34:09.942Z,10.50
2018-11-02T07:36:38.083Z,10.60
2018-11-02T07:39:05.644Z,10.50
2018-11-02T07:41:33.211Z,10.50
2018-11-02T07:44:12.073Z,10.60
2018-11-02T07:46:39.625Z,10.70
2018-11-02T07:49:07.198Z,10.90
2018-11-02T07:51:35.578Z,10.90
2018-11-02T07:54:03.136Z,10.90
2018-11-02T07:56:31.466Z,10.80
2018-11-02T07:59:00.269Z,10.80
2018-11-02T08:01:27.838Z,10.90
2018-11-02T08:03:55.408Z,10.80
2018-11-02T08:06:23.003Z,10.80
2018-11-02T08:08:51.367Z,11.00
2018-11-02T08:11:19.982Z,11.00
2018-11-02T08:13:47.490Z,11.00
2018-11-02T08:16:15.059Z,11.20
2018-11-02T08:18:42.667Z,11.40
2018-11-02T08:21:10.983Z,11.30
2018-11-02T08:23:38.633Z,11.30
2018-11-02T08:26:06.215Z,11.20
2018-11-02T08:28:33.769Z,11.30
2018-11-02T08:31:02.303Z,11.50
2018-11-02T08:33:29.865Z,11.60
2018-11-02T08:35:57.431Z,11.70
2018-11-02T08:38:25.053Z,11.70
2018-11-02T08:40:52.610Z,11.60
2018-11-02T08:43:20.189Z,11.50
2018-11-02T08:45:48.570Z,11.40
2018-11-02T08:48:16.903Z,11.30
2018-11-02T08:50:44.455Z,11.30
2018-11-02T08:53:12.100Z,11.20
2018-11-02T08:55:39.694Z,11.10
2018-11-02T08:58:07.450Z,10.90
2018-11-02T09:00:35.534Z,10.90
2018-11-02T09:03:03.098Z,10.80
2018-11-02T09:05:30.657Z,10.80
2018-11-02T09:07:58.272Z,10.90
2018-11-02T09:10:25.833Z,10.90
2018-11-02T09:12:54.154Z,10.90
2018-11-02T09:15:22.137Z,10.90
2018-11-02T09:17:49.696Z,10.90
2018-11-02T09:20:17.260Z,10.90
2018-11-02T09:22:45.221Z,10.80
2018-11-02T09:25:12.778Z,10.80
2018-11-02T09:27:40.337Z,10.80
2018-11-02T09:30:08.428Z,10.90
2018-11-02T09:32:35.997Z,10.90
2018-11-02T09:35:03.563Z,10.90
2018-11-02T09:37:31.209Z,10.90
2018-11-02T09:39:59.071Z,11.00
2018-11-02T09:42:27.142Z,11.20
2018-11-02T09:44:54.654Z,11.30
2018-11-02T09:47:22.213Z,11.20
2018-11-02T09:49:50.550Z,11.20
2018-11-02T09:52:18.199Z,11.20
2018-11-02T09:54:46.516Z,11.20
2018-11-02T09:57:14.052Z,11.20
2018-11-02T09:59:41.658Z,11.20
2018-11-02T10:02:10.049Z,11.20
2018-11-02T10:04:38.167Z,11.20
2018-11-02T10:07:06.762Z,11.20
2018-11-02T10:09:34.324Z,11.20
2018-11-02T10:12:01.901Z,11.20
2018-11-02T10:14:30.020Z,11.40
2018-11-02T10:16:57.588Z,11.40
2018-11-02T10:19:25.135Z,11.40
2018-11-02T10:21:52.719Z,11.40
2018-11-02T10:24:20.272Z,11.40
2018-11-02T10:26:49.082Z,11.30
2018-11-02T10:29:16.647Z,11.30
2018-11-02T10:31:44.421Z,11.30
2018-11-02T10:34:12.028Z,11.30
2018-11-02T10:36:40.352Z,11.30
2018-11-02T10:39:07.907Z,11.30
2018-11-02T10:41:35.532Z,11.40
2018-11-02T10:44:03.095Z,11.40
2018-11-02T10:46:30.651Z,11.40
2018-11-02T10:48:58.233Z,11.40
2018-11-02T10:51:25.784Z,11.40
2018-11-02T10:53:53.339Z,11.50
2018-11-02T10:56:22.825Z,11.60
2018-11-02T10:58:50.334Z,11.60
2018-11-02T11:01:17.936Z,11.60
2018-11-02T11:03:46.891Z,11.70
2018-11-02T11:06:14.445Z,11.70
2018-11-02T11:08:41.998Z,11.70
2018-11-02T11:11:10.708Z,11.70
2018-11-02T11:13:38.694Z,11.70
2018-11-02T11:16:05.845Z,11.70
2018-11-02T11:18:33.455Z,11.70
2018-11-02T11:21:01.065Z,11.80
2018-11-02T11:23:29.324Z,11.90
2018-11-02T11:25:56.932Z,11.90
2018-11-02T11:28:25.257Z,11.60
2018-11-02T11:30:52.828Z,11.50
2018-11-02T11:33:20.477Z,11.40
2018-11-02T11:35:48.043Z,11.20
2018-11-02T11:38:15.602Z,11.00
2018-11-02T11:40:43.213Z,11.00
2018-11-02T11:43:10.768Z,10.90
2018-11-02T11:45:38.337Z,10.80
2018-11-02T11:48:05.957Z,10.80
2018-11-02T11:50:33.522Z,10.70
2018-11-02T11:53:01.093Z,10.60
2018-11-02T11:55:28.686Z,10.70
2018-11-02T11:57:56.248Z,10.60
2018-11-02T12:00:23.815Z,10.60
2018-11-02T12:02:52.675Z,10.60
2018-11-02T12:05:20.251Z,10.60
2018-11-02T12:07:47.808Z,10.60
2018-11-02T12:10:15.451Z,10.70
2018-11-02T12:12:42.999Z,10.90
2018-11-02T12:15:10.565Z,10.90
2018-11-02T12:17:38.755Z,10.90
2018-11-02T12:20:06.323Z,10.90
2018-11-02T12:22:33.887Z,10.90
2018-11-02T12:25:01.725Z,11.00
2018-11-02T12:27:29.298Z,11.20
2018-11-02T12:29:56.867Z,11.20
2018-11-02T12:32:24.474Z,11.10
2018-11-02T12:34:52.803Z,11.10
2018-11-02T12:37:20.357Z,11.10
2018-11-02T12:39:47.973Z,11.00
2018-11-02T12:42:16.302Z,11.00
2018-11-02T12:44:43.865Z,11.00
2018-11-02T12:47:11.451Z,10.90
2018-11-02T12:49:39.328Z,11.00
2018-11-02T12:52:06.636Z,11.00
2018-11-02T12:54:34.194Z,11.10
2018-11-02T12:57:01.757Z,11.10
2018-11-02T12:59:29.372Z,11.10
2018-11-02T13:01:56.938Z,11.10
2018-11-02T13:04:24.488Z,11.10
2018-11-02T13:06:52.102Z,11.10
2018-11-02T13:11:47.225Z,11.10
2018-11-02T13:14:15.632Z,11.10
2018-11-02T13:16:43.199Z,11.10
2018-11-02T13:19:10.767Z,11.10
2018-11-02T13:21:38.425Z,11.30
2018-11-02T13:24:06.685Z,11.30
2018-11-02T13:26:34.987Z,11.30
2018-11-02T13:29:02.536Z,11.30
2018-11-02T13:31:30.192Z,11.30
2018-11-02T13:33:57.704Z,11.30
2018-11-02T13:36:26.113Z,11.20
2018-11-02T13:38:53.604Z,11.20
2018-11-02T13:41:21.245Z,11.20
2018-11-02T13:43:48.933Z,11.20
2018-11-02T13:46:16.375Z,11.20
2018-11-02T13:48:44.013Z,11.20
2018-11-02T13:51:11.569Z,11.20
2018-11-02T13:53:39.185Z,11.20
2018-11-02T13:56:06.741Z,11.20
2018-11-02T13:58:34.310Z,11.30
2018-11-02T14:01:01.873Z,11.30
2018-11-02T14:03:30.427Z,11.30
2018-11-02T14:05:57.987Z,11.30
2018-11-02T14:08:25.552Z,11.30
2018-11-02T14:10:53.166Z,11.30
2018-11-02T14:13:21.500Z,11.30
2018-11-02T14:15:49.066Z,11.30
2018-11-02T14:18:16.691Z,11.30
2018-11-02T14:20:44.236Z,11.30
2018-11-02T14:23:11.805Z,11.30
2018-11-02T14:25:39.452Z,11.30
2018-11-02T14:28:07.015Z,11.30
2018-11-02T14:30:35.347Z,11.30
2018-11-02T14:33:02.948Z,11.30
2018-11-02T14:35:31.284Z,11.40
2018-11-02T14:37:58.846Z,11.40
2018-11-02T14:40:26.483Z,11.50
2018-11-02T14:42:54.058Z,11.50
2018-11-02T14:45:21.631Z,11.40
2018-11-02T14:47:49.243Z,11.40
2018-11-02T14:50:16.818Z,11.40
2018-11-02T14:52:44.393Z,11.40
2018-11-02T14:55:11.985Z,11.30
2018-11-02T14:57:39.549Z,11.30
2018-11-02T15:00:07.166Z,11.20
2018-11-02T15:02:34.727Z,11.40
2018-11-02T15:05:02.288Z,11.30
2018-11-02T15:07:30.807Z,11.30
2018-11-02T15:09:58.366Z,11.30
2018-11-02T15:12:25.927Z,11.20
2018-11-02T15:14:53.564Z,11.20
2018-11-02T15:17:21.126Z,11.10
2018-11-02T15:19:48.686Z,11.20
2018-11-02T15:22:16.278Z,11.20
2018-11-02T15:24:43.840Z,11.20
2018-11-02T15:27:11.445Z,11.10
2018-11-02T15:29:39.782Z,11.00
2018-11-02T15:32:07.351Z,11.00
2018-11-02T15:34:35.024Z,11.00
2018-11-02T15:37:02.550Z,11.00
2018-11-02T15:39:30.112Z,10.90
2018-11-02T15:41:58.327Z,10.90
2018-11-02T15:44:25.953Z,10.80
2018-11-02T15:46:53.445Z,10.80
2018-11-02T15:49:21.062Z,10.80
2018-11-02T15:51:48.946Z,10.70
2018-11-02T15:54:16.502Z,10.70
2018-11-02T15:56:44.088Z,10.70
2018-11-02T15:59:11.657Z,10.70
2018-11-02T16:01:39.262Z,10.70
2018-11-02T16:04:06.827Z,10.70
2018-11-02T16:06:34.395Z,10.60
2018-11-02T16:09:02.001Z,10.60
2018-11-02T16:11:29.568Z,10.60
2018-11-02T16:13:57.140Z,10.60
2018-11-02T16:16:25.988Z,10.70
2018-11-02T16:18:53.549Z,10.70
2018-11-02T16:21:21.122Z,10.70
2018-11-02T16:23:48.719Z,10.70
2018-11-02T16:26:17.091Z,10.60
2018-11-02T16:28:45.229Z,10.60
2018-11-02T16:31:12.786Z,10.60
2018-11-02T16:33:40.356Z,10.50
2018-11-02T16:36:08.779Z,10.40
2018-11-02T16:38:37.111Z,10.30
2018-11-02T16:41:04.689Z,10.30
2018-11-02T16:43:32.303Z,10.20
2018-11-02T16:46:00.613Z,10.20
2018-11-02T16:48:28.950Z,10.20
2018-11-02T16:50:57.277Z,10.10
2018-11-02T16:53:24.846Z,10.10
2018-11-02T16:55:52.910Z,10.10
2018-11-02T16:58:20.494Z,10.00
2018-11-02T17:00:48.038Z,9.90
2018-11-02T17:03:15.613Z,9.90
2018-11-02T17:05:43.229Z,9.80
2018-11-02T17:08:10.994Z,9.70
2018-11-02T17:10:39.301Z,9.50
2018-11-02T17:13:06.868Z,9.50
2018-11-02T17:15:35.452Z,9.40
2018-11-02T17:18:03.045Z,9.30
2018-11-02T17:20:30.578Z,9.30
2018-11-02T17:22:58.166Z,9.20
2018-11-02T17:25:25.720Z,9.10
2018-11-02T17:27:53.871Z,9.20
2018-11-02T17:30:21.731Z,9.20
2018-11-02T17:32:49.290Z,9.10
2018-11-02T17:35:16.922Z,9.00
2018-11-02T17:37:45.230Z,8.80
2018-11-02T17:40:12.887Z,8.80
2018-11-02T17:42:40.493Z,8.70
2018-11-02T17:45:08.047Z,8.70
2018-11-02T17:47:35.640Z,8.60
2018-11-02T17:50:03.214Z,8.60
2018-11-02T17:52:30.789Z,8.70
2018-11-02T17:54:58.340Z,8.80
2018-11-02T17:57:26.413Z,8.70
2018-11-02T17:59:53.980Z,8.60
2018-11-02T18:02:21.535Z,8.50
2018-11-02T18:04:49.425Z,8.40
2018-11-02T18:07:16.981Z,8.30
2018-11-02T18:09:44.539Z,8.20
2018-11-02T18:12:12.206Z,8.10
2018-11-02T18:14:39.826Z,8.00
2018-11-02T18:17:08.049Z,7.80
2018-11-02T18:19:35.668Z,7.80
2018-11-02T18:22:03.621Z,7.70
2018-11-02T18:24:31.265Z,7.60
2018-11-02T18:26:59.220Z,7.50
2018-11-02T18:29:26.788Z,7.50
2018-11-02T18:31:54.352Z,7.40
2018-11-02T18:34:21.944Z,7.30
2018-11-02T18:36:50.279Z,7.20
2018-11-02T18:39:17.885Z,7.20
2018-11-02T18:41:45.446Z,7.20
2018-11-02T18:44:13.769Z,7.00
2018-11-02T18:46:41.369Z,7.00
2018-11-02T18:49:08.930Z,7.00
2018-11-02T18:51:36.502Z,6.90
2018-11-02T18:54:04.088Z,7.00
2018-11-02T18:56:31.651Z,7.20
2018-11-02T18:59:00.490Z,7.30
2018-11-02T19:01:28.049Z,7.30
2018-11-02T19:03:55.615Z,7.20
2018-11-02T19:06:23.381Z,7.10
2018-11-02T19:08:50.925Z,7.00
2018-11-02T19:11:18.505Z,7.10
2018-11-02T19:13:46.149Z,7.10
2018-11-02T19:16:13.718Z,7.00
2018-11-02T19:18:41.280Z,6.90
2018-11-02T19:21:09.288Z,6.90
2018-11-02T19:23:36.823Z,6.80
2018-11-02T19:26:04.384Z,6.80
2018-11-02T19:28:31.996Z,6.90
2018-11-02T19:30:59.557Z,7.00
2018-11-02T19:33:27.373Z,7.10
2018-11-02T19:35:55.061Z,7.00
2018-11-02T19:38:22.558Z,7.00
2018-11-02T19:40:50.113Z,6.90
2018-11-02T19:43:17.803Z,6.80
2018-11-02T19:45:45.396Z,6.70
2018-11-02T19:48:12.923Z,6.70
2018-11-02T19:50:40.717Z,6.70
2018-11-02T19:53:08.153Z,6.60
2018-11-02T19:55:35.720Z,6.60
2018-11-02T19:58:03.325Z,6.60
2018-11-02T20:00:31.687Z,6.60
2018-11-02T20:02:59.256Z,6.50
2018-11-02T20:05:27.189Z,6.50
2018-11-02T20:07:54.755Z,6.60
2018-11-02T20:10:22.315Z,6.50
2018-11-02T20:12:49.902Z,6.50
2018-11-02T20:15:18.048Z,6.40
2018-11-02T20:17:45.735Z,6.30
2018-11-02T20:20:13.233Z,6.40
2018-11-02T20:22:40.800Z,6.30
2018-11-02T20:25:09.319Z,6.20
2018-11-02T20:27:36.892Z,6.20
2018-11-02T20:30:04.456Z,6.10
2018-11-02T20:32:32.211Z,6.00
2018-11-02T20:34:59.637Z,5.90
2018-11-02T20:37:27.199Z,5.90
2018-11-02T20:39:55.201Z,5.80
2018-11-02T20:42:22.762Z,5.70
2018-11-02T20:44:50.327Z,5.60
2018-11-02T20:47:17.932Z,5.60
2018-11-02T20:49:46.274Z,5.50
2018-11-02T20:52:13.834Z,5.50
2018-11-02T20:54:41.558Z,5.40
2018-11-02T20:57:09.119Z,5.30
2018-11-02T20:59:36.678Z,5.30
2018-11-02T21:02:05.198Z,5.10
2018-11-02T21:04:32.750Z,5.10
2018-11-02T21:07:00.318Z,5.00
2018-11-02T21:09:28.116Z,5.00
2018-11-02T21:11:55.499Z,4.90
2018-11-02T21:14:23.121Z,4.90
2018-11-02T21:16:50.706Z,4.90
2018-11-02T21:19:18.228Z,4.90
2018-11-02T21:21:46.617Z,4.90
2018-11-02T21:24:14.171Z,4.80
2018-11-02T21:26:41.741Z,4.80
2018-11-02T21:29:09.322Z,4.80
2018-11-02T21:31:36.879Z,4.80
2018-11-02T21:34:04.531Z,4.90
2018-11-02T21:36:32.059Z,4.90
2018-11-02T21:38:59.614Z,4.90
2018-11-02T21:41:27.263Z,4.90
2018-11-02T21:43:54.811Z,4.90
2018-11-02T21:46:22.371Z,4.90
2018-11-02T21:48:49.960Z,4.80
2018-11-02T21:51:17.524Z,4.80
2018-11-02T21:53:45.097Z,4.80
2018-11-02T21:56:12.697Z,4.80
2018-11-02T21:58:40.282Z,4.90
2018-11-02T22:01:07.825Z,5.00
2018-11-02T22:03:35.410Z,5.00
2018-11-02T22:06:03.046Z,5.00
2018-11-02T22:08:30.593Z,4.90
2018-11-02T22:10:58.164Z,4.80
2018-11-02T22:13:25.725Z,4.80
2018-11-02T22:15:53.336Z,4.70
2018-11-02T22:18:20.893Z,4.60
2018-11-02T22:20:48.456Z,4.50
2018-11-02T22:23:16.056Z,4.40
2018-11-02T22:25:43.622Z,4.30
2018-11-02T22:28:11.185Z,4.30
2018-11-02T22:30:38.805Z,4.20
2018-11-02T22:33:07.107Z,4.10
2018-11-02T22:35:34.667Z,4.10
2018-11-02T22:38:02.330Z,4.00
2018-11-02T22:40:29.851Z,4.20
2018-11-02T22:42:57.412Z,4.30
2018-11-02T22:45:25.008Z,4.30
2018-11-02T22:47:52.563Z,4.20
2018-11-02T22:50:20.197Z,4.10
2018-11-02T22:52:47.780Z,4.00
2018-11-02T22:55:15.346Z,3.90
2018-11-02T22:57:42.940Z,3.80
2018-11-02T23:00:10.507Z,3.80
2018-11-02T23:02:38.066Z,3.70
2018-11-02T23:05:05.671Z,3.60
2018-11-02T23:07:33.247Z,3.60
2018-11-02T23:10:00.823Z,3.50
2018-11-02T23:12:28.445Z,3.50
2018-11-02T23:14:56.007Z,3.50
2018-11-02T23:17:23.570Z,3.60
2018-11-02T23:19:51.161Z,3.70
2018-11-02T23:22:19.342Z,3.90
2018-11-02T23:24:46.909Z,3.90
2018-11-02T23:27:14.473Z,3.90
2018-11-02T23:29:42.154Z,4.00
2018-11-02T23:32:09.635Z,3.90
2018-11-02T23:34:37.964Z,4.00
2018-11-02T23:37:05.547Z,3.90
2018-11-02T23:39:33.165Z,3.90
2018-11-02T23:42:00.726Z,3.80
2018-11-02T23:44:28.286Z,3.80
2018-11-02T23:46:55.883Z,3.70
2018-11-02T23:49:23.453Z,3.60
2018-11-02T23:51:51.021Z,3.50
2018-11-02T23:54:18.617Z,3.40
2018-11-02T23:56:46.187Z,3.40
2018-11-02T23:59:13.754Z,3.30
